Accueil
METAR-TAF:

METAR-TAF

Aéroports :

Aéroport international de Bonriki

Tarawa, Kiribati

latitude: 01-21N, longitude: 172-55E, altitude: 2 m

Observation

Le bulletin a été fait il y a 22 minutes, à 20:00 UTC
Vent 3 kt de sud/sud-est
Température 29°C
Humidité 70%
Pression 1009 hPa
Visibilité 10 km ou plus
Quelques nuages à une hauteur de 2000 ft
Nuages épars à une hauteur de 10000 ft

METAR: NGTA 232000Z 16003KT 9999 FEW020 SCT100 29/23 Q1009

Heure: 10:22 (20:22 UTC)

Prévision

Le bulletin a été fait il y a 3 heures et 14 minutes, à 17:08 UTC
Prévision valable du 23 à 18 UTC au 24 à 18 UTC
Vent 5 kt de sud-est
Visibilité 10 km ou plus
Quelques nuages à une hauteur de 2000 ft

TAF: NGTA 231708Z 2318/2418 13005KT 9999 FEW020

Observations et prévisions météorologiques de plus de 4000 aéroports (messages METAR et TAF).

Les stations disponibles sont représentées par des disques jaunes et rouges sur la carte.

Passer la souris dessus pour voir le nom de la station.

Cliquer dessus pour voir les observations et prévisions météorologiques.

Pour changer de carte: cliquez sur les boutons verts avec une croix noire pour zoomer, sur le bouton vert avec un tiret pour effectuer un zoom arrière, ou sur les flèches vertes pour les cartes adjacentes.


METAR-TAF: